FAB2590 SBRJ-SBBR
Flight info
| Callsign | FAB2590 |
|---|---|
| Flight time | 1h 42m |
| Altitude | 38000 |
| Route | MUDKA UM409 ISIPI |
| Aircraft | E190/M-SDE2E3FGHIJ1J3J4J7P2RUWYZ/SB1D1G1 |
Departure
| Time | 2026-04-29 19:37 |
|---|---|
| Airport | Santos Dumont Airport (SBRJ) |
Arrival
| Time | 2026-04-29 21:19 |
|---|---|
| Airport | Presidente Juscelino Kubitschek International Airport (SBBR) |
| Time | Latitude | Longitude | Altitude | Speed | Heading |
|---|---|---|---|---|---|
| 2026-04-29 19:31 | -22.90674 | -43.16627 | 21 ft | 0 kts | 266° |
| 2026-04-29 19:33 | -22.90675 | -43.16628 | 21 ft | 1 kts | 263° |
| 2026-04-29 19:34 | -22.90681 | -43.16633 | 22 ft | 2 kts | 218° |
| 2026-04-29 19:34 | -22.90697 | -43.16625 | 23 ft | 3 kts | 134° |
| 2026-04-29 19:34 | -22.90695 | -43.16584 | 21 ft | 8 kts | 70° |
| 2026-04-29 19:34 | -22.90635 | -43.16551 | 21 ft | 12 kts | 2° |
| 2026-04-29 19:35 | -22.90542 | -43.16557 | 21 ft | 14 kts | 356° |
| 2026-04-29 19:35 | -22.90499 | -43.16511 | 21 ft | 3 kts | 84° |
| 2026-04-29 19:35 | -22.90498 | -43.16502 | 21 ft | 2 kts | 84° |
| 2026-04-29 19:35 | -22.90495 | -43.16473 | 21 ft | 6 kts | 84° |
| 2026-04-29 19:36 | -22.90490 | -43.16420 | 22 ft | 9 kts | 75° |
| 2026-04-29 19:36 | -22.90471 | -43.16346 | 24 ft | 10 kts | 73° |
| 2026-04-29 19:36 | -22.90487 | -43.16315 | 23 ft | 3 kts | 176° |
| 2026-04-29 19:36 | -22.90520 | -43.16315 | 23 ft | 14 kts | 179° |
| 2026-04-29 19:37 | -22.90912 | -43.16291 | 24 ft | 99 kts | 176° |
| 2026-04-29 19:37 | -22.91484 | -43.16254 | 41 ft | 146 kts | 176° |
| 2026-04-29 19:37 | -22.92893 | -43.15794 | 954 ft | 181 kts | 142° |
| 2026-04-29 19:37 | -22.93928 | -43.14736 | 1387 ft | 227 kts | 135° |
| 2026-04-29 19:38 | -22.95212 | -43.13539 | 1957 ft | 247 kts | 143° |
| 2026-04-29 19:38 | -22.96533 | -43.12433 | 2421 ft | 247 kts | 139° |
| 2026-04-29 19:38 | -22.97942 | -43.11384 | 2848 ft | 246 kts | 153° |
| 2026-04-29 19:38 | -22.99583 | -43.10829 | 3332 ft | 249 kts | 171° |
| 2026-04-29 19:39 | -23.01311 | -43.10799 | 3834 ft | 249 kts | 188° |
| 2026-04-29 19:39 | -23.03014 | -43.11339 | 4406 ft | 259 kts | 206° |
| 2026-04-29 19:39 | -23.04526 | -43.12457 | 5019 ft | 267 kts | 223° |
| 2026-04-29 19:39 | -23.05831 | -43.13917 | 5613 ft | 272 kts | 230° |
| 2026-04-29 19:40 | -23.06961 | -43.15601 | 5937 ft | 282 kts | 244° |
| 2026-04-29 19:40 | -23.07518 | -43.17631 | 5977 ft | 280 kts | 259° |
| 2026-04-29 19:40 | -23.07901 | -43.19704 | 5988 ft | 279 kts | 259° |
| 2026-04-29 19:40 | -23.08295 | -43.21738 | 6005 ft | 278 kts | 258° |
| 2026-04-29 19:41 | -23.08694 | -43.23795 | 6003 ft | 278 kts | 259° |
| 2026-04-29 19:41 | -23.09096 | -43.25848 | 6002 ft | 278 kts | 258° |
| 2026-04-29 19:41 | -23.09498 | -43.27896 | 5994 ft | 277 kts | 258° |
| 2026-04-29 19:41 | -23.09902 | -43.29946 | 5998 ft | 277 kts | 258° |
| 2026-04-29 19:42 | -23.10307 | -43.31996 | 5998 ft | 277 kts | 258° |
| 2026-04-29 19:42 | -23.10576 | -43.33350 | 6002 ft | 277 kts | 258° |
| 2026-04-29 19:42 | -23.11117 | -43.36088 | 5979 ft | 277 kts | 258° |
| 2026-04-29 19:42 | -23.11520 | -43.38124 | 5967 ft | 276 kts | 258° |
| 2026-04-29 19:43 | -23.11923 | -43.40161 | 5970 ft | 275 kts | 258° |
| 2026-04-29 19:43 | -23.12326 | -43.42200 | 5970 ft | 276 kts | 258° |
| 2026-04-29 19:43 | -23.12729 | -43.44236 | 5970 ft | 276 kts | 258° |
| 2026-04-29 19:43 | -23.12921 | -43.46306 | 5974 ft | 276 kts | 274° |
| 2026-04-29 19:44 | -23.12459 | -43.48314 | 5984 ft | 276 kts | 295° |
| 2026-04-29 19:44 | -23.11368 | -43.50007 | 5988 ft | 274 kts | 316° |
| 2026-04-29 19:44 | -23.09795 | -43.51167 | 5999 ft | 275 kts | 336° |
| 2026-04-29 19:44 | -23.07943 | -43.51652 | 6006 ft | 275 kts | 357° |
| 2026-04-29 19:45 | -23.06028 | -43.51602 | 6013 ft | 276 kts | 3° |
| 2026-04-29 19:45 | -23.04112 | -43.51475 | 5962 ft | 274 kts | 3° |
| 2026-04-29 19:45 | -23.02213 | -43.51367 | 5969 ft | 273 kts | 2° |
| 2026-04-29 19:45 | -23.00310 | -43.51264 | 5968 ft | 274 kts | 2° |
| 2026-04-29 19:46 | -22.98402 | -43.51161 | 5967 ft | 274 kts | 2° |
| 2026-04-29 19:46 | -22.96496 | -43.51046 | 5966 ft | 274 kts | 7° |
| 2026-04-29 19:46 | -22.94759 | -43.50330 | 5961 ft | 274 kts | 37° |
| 2026-04-29 19:46 | -22.93597 | -43.48702 | 5968 ft | 276 kts | 64° |
| 2026-04-29 19:47 | -22.92899 | -43.46797 | 5913 ft | 268 kts | 68° |
| 2026-04-29 19:47 | -22.92181 | -43.44937 | 5576 ft | 265 kts | 66° |
| 2026-04-29 19:47 | -22.91460 | -43.43147 | 5230 ft | 254 kts | 65° |
| 2026-04-29 19:47 | -22.90753 | -43.41407 | 4902 ft | 249 kts | 65° |
| 2026-04-29 19:48 | -22.90051 | -43.39713 | 4611 ft | 244 kts | 64° |
| 2026-04-29 19:48 | -22.89589 | -43.38598 | 4351 ft | 245 kts | 64° |
| 2026-04-29 19:48 | -22.88645 | -43.36347 | 3747 ft | 247 kts | 64° |
| 2026-04-29 19:48 | -22.87943 | -43.34648 | 3168 ft | 247 kts | 67° |
| 2026-04-29 19:49 | -22.87405 | -43.32928 | 2827 ft | 238 kts | 71° |
| 2026-04-29 19:49 | -22.86898 | -43.31258 | 2445 ft | 229 kts | 71° |
| 2026-04-29 19:49 | -22.86400 | -43.29664 | 2120 ft | 218 kts | 71° |
| 2026-04-29 19:49 | -22.85913 | -43.28134 | 1803 ft | 212 kts | 72° |
| 2026-04-29 19:50 | -22.85439 | -43.26656 | 1607 ft | 200 kts | 72° |
| 2026-04-29 19:50 | -22.85244 | -43.25255 | 1575 ft | 182 kts | 98° |
| 2026-04-29 19:50 | -22.85556 | -43.24004 | 1617 ft | 159 kts | 107° |
| 2026-04-29 19:50 | -22.85841 | -43.22898 | 1478 ft | 143 kts | 103° |
| 2026-04-29 19:51 | -22.86027 | -43.21883 | 1183 ft | 135 kts | 102° |
| 2026-04-29 19:51 | -22.86197 | -43.20902 | 942 ft | 128 kts | 102° |
| 2026-04-29 19:51 | -22.86341 | -43.19981 | 874 ft | 124 kts | 102° |
| 2026-04-29 19:51 | -22.86489 | -43.19051 | 880 ft | 126 kts | 102° |
| 2026-04-29 19:52 | -22.86702 | -43.18117 | 817 ft | 126 kts | 110° |
| 2026-04-29 19:52 | -22.87031 | -43.17256 | 720 ft | 125 kts | 122° |
| 2026-04-29 19:52 | -22.87606 | -43.16598 | 556 ft | 123 kts | 152° |
| 2026-04-29 19:52 | -22.88464 | -43.16416 | 380 ft | 125 kts | 174° |
| 2026-04-29 19:53 | -22.89346 | -43.16385 | 266 ft | 128 kts | 177° |
| 2026-04-29 19:53 | -22.90255 | -43.16333 | 97 ft | 131 kts | 177° |
| 2026-04-29 19:53 | -22.91129 | -43.16279 | 103 ft | 128 kts | 176° |
| 2026-04-29 19:53 | -22.92042 | -43.16130 | 679 ft | 137 kts | 157° |
| 2026-04-29 19:54 | -22.93563 | -43.14541 | 2032 ft | 159 kts | 132° |
| 2026-04-29 19:54 | -22.94377 | -43.13662 | 2822 ft | 177 kts | 136° |
| 2026-04-29 19:54 | -22.95335 | -43.12673 | 3375 ft | 202 kts | 135° |
| 2026-04-29 19:55 | -22.96414 | -43.11554 | 4043 ft | 226 kts | 135° |
| 2026-04-29 19:55 | -22.97599 | -43.10307 | 4831 ft | 246 kts | 135° |
| 2026-04-29 19:55 | -22.98826 | -43.08923 | 5682 ft | 262 kts | 126° |
| 2026-04-29 19:55 | -22.99561 | -43.07081 | 6567 ft | 275 kts | 97° |
| 2026-04-29 19:56 | -22.99341 | -43.04999 | 7464 ft | 285 kts | 67° |
| 2026-04-29 19:56 | -22.98382 | -43.03089 | 8471 ft | 292 kts | 61° |
| 2026-04-29 19:56 | -22.97509 | -43.01108 | 9483 ft | 296 kts | 65° |
| 2026-04-29 19:56 | -22.96663 | -42.99058 | 10424 ft | 283 kts | 64° |
| 2026-04-29 19:57 | -22.95884 | -42.97136 | 11268 ft | 285 kts | 65° |
| 2026-04-29 19:57 | -22.95347 | -42.95794 | 11896 ft | 289 kts | 65° |
| 2026-04-29 19:57 | -22.94222 | -42.93113 | 13190 ft | 293 kts | 58° |
| 2026-04-29 19:57 | -22.93142 | -42.91273 | 14134 ft | 294 kts | 51° |
| 2026-04-29 19:58 | -22.91905 | -42.89492 | 15051 ft | 296 kts | 47° |
| 2026-04-29 19:58 | -22.90609 | -42.87749 | 15998 ft | 297 kts | 46° |
| 2026-04-29 19:58 | -22.89273 | -42.86044 | 16927 ft | 298 kts | 44° |
| 2026-04-29 19:58 | -22.87688 | -42.84457 | 17130 ft | 317 kts | 26° |
| 2026-04-29 19:59 | -22.85645 | -42.83540 | 17718 ft | 322 kts | 7° |
| 2026-04-29 19:59 | -22.83396 | -42.83442 | 18287 ft | 328 kts | 348° |
| 2026-04-29 19:59 | -22.81131 | -42.83931 | 18795 ft | 337 kts | 344° |
| 2026-04-29 19:59 | -22.78822 | -42.84578 | 19268 ft | 349 kts | 342° |
| 2026-04-29 20:00 | -22.76399 | -42.85122 | 19604 ft | 366 kts | 348° |
| 2026-04-29 20:00 | -22.73832 | -42.85470 | 20035 ft | 377 kts | 350° |
| 2026-04-29 20:00 | -22.71216 | -42.85841 | 20583 ft | 383 kts | 349° |
| 2026-04-29 20:00 | -22.68564 | -42.86261 | 21211 ft | 386 kts | 348° |
| 2026-04-29 20:01 | -22.65931 | -42.86693 | 21795 ft | 389 kts | 348° |
| 2026-04-29 20:01 | -22.63241 | -42.87137 | 22412 ft | 392 kts | 347° |
| 2026-04-29 20:01 | -22.60524 | -42.87584 | 22910 ft | 397 kts | 347° |
| 2026-04-29 20:01 | -22.57779 | -42.88040 | 23379 ft | 402 kts | 347° |
| 2026-04-29 20:02 | -22.54992 | -42.88500 | 23804 ft | 408 kts | 347° |
| 2026-04-29 20:02 | -22.52174 | -42.88968 | 24184 ft | 412 kts | 347° |
| 2026-04-29 20:02 | -22.49325 | -42.89439 | 24582 ft | 416 kts | 347° |
| 2026-04-29 20:02 | -22.47390 | -42.89761 | 24865 ft | 418 kts | 348° |
| 2026-04-29 20:03 | -22.43570 | -42.90390 | 25411 ft | 420 kts | 347° |
| 2026-04-29 20:03 | -22.40678 | -42.90866 | 25829 ft | 421 kts | 347° |
| 2026-04-29 20:03 | -22.37771 | -42.91351 | 26259 ft | 423 kts | 347° |
| 2026-04-29 20:03 | -22.34855 | -42.91834 | 26680 ft | 424 kts | 347° |
| 2026-04-29 20:04 | -22.31937 | -42.92317 | 27103 ft | 426 kts | 347° |
| 2026-04-29 20:04 | -22.28999 | -42.92804 | 27529 ft | 427 kts | 347° |
| 2026-04-29 20:04 | -22.26072 | -42.93286 | 28215 ft | 421 kts | 347° |
| 2026-04-29 20:04 | -22.23225 | -42.93750 | 29107 ft | 410 kts | 347° |
| 2026-04-29 20:05 | -22.20407 | -42.94216 | 29630 ft | 409 kts | 347° |
| 2026-04-29 20:05 | -22.17666 | -42.94787 | 30099 ft | 404 kts | 339° |
| 2026-04-29 20:05 | -22.15174 | -42.96092 | 30478 ft | 396 kts | 322° |
| 2026-04-29 20:05 | -22.13125 | -42.98050 | 30838 ft | 393 kts | 313° |
| 2026-04-29 20:06 | -22.11196 | -43.00146 | 31211 ft | 394 kts | 313° |
| 2026-04-29 20:06 | -22.09273 | -43.02251 | 31566 ft | 394 kts | 312° |
| 2026-04-29 20:06 | -22.07345 | -43.04371 | 31874 ft | 396 kts | 312° |
| 2026-04-29 20:06 | -22.05413 | -43.06505 | 32078 ft | 401 kts | 312° |
| 2026-04-29 20:07 | -22.03456 | -43.08681 | 32230 ft | 407 kts | 312° |
| 2026-04-29 20:07 | -22.01472 | -43.10884 | 32450 ft | 411 kts | 312° |
| 2026-04-29 20:07 | -21.99471 | -43.13104 | 32680 ft | 415 kts | 312° |
| 2026-04-29 20:07 | -21.97455 | -43.15345 | 32885 ft | 419 kts | 312° |
| 2026-04-29 20:08 | -21.95421 | -43.17607 | 33128 ft | 422 kts | 312° |
| 2026-04-29 20:08 | -21.94066 | -43.19112 | 33307 ft | 423 kts | 311° |
| 2026-04-29 20:08 | -21.91319 | -43.22166 | 33680 ft | 425 kts | 312° |
| 2026-04-29 20:08 | -21.89258 | -43.24460 | 33943 ft | 427 kts | 311° |
| 2026-04-29 20:09 | -21.87187 | -43.26765 | 34170 ft | 429 kts | 311° |
| 2026-04-29 20:09 | -21.85113 | -43.29076 | 34405 ft | 430 kts | 311° |
| 2026-04-29 20:09 | -21.83033 | -43.31392 | 34632 ft | 431 kts | 311° |
| 2026-04-29 20:09 | -21.80941 | -43.33725 | 34838 ft | 432 kts | 311° |
| 2026-04-29 20:10 | -21.78855 | -43.36054 | 35046 ft | 433 kts | 311° |
| 2026-04-29 20:10 | -21.76763 | -43.38389 | 35222 ft | 434 kts | 311° |
| 2026-04-29 20:10 | -21.74586 | -43.40654 | 35398 ft | 436 kts | 315° |
| 2026-04-29 20:10 | -21.72323 | -43.42826 | 35677 ft | 432 kts | 315° |
| 2026-04-29 20:11 | -21.70132 | -43.44946 | 36438 ft | 419 kts | 315° |
| 2026-04-29 20:11 | -21.68003 | -43.47012 | 36794 ft | 417 kts | 315° |
| 2026-04-29 20:11 | -21.65853 | -43.49107 | 36990 ft | 417 kts | 314° |
| 2026-04-29 20:11 | -21.63698 | -43.51209 | 37139 ft | 419 kts | 314° |
| 2026-04-29 20:12 | -21.61536 | -43.53321 | 37264 ft | 420 kts | 314° |
| 2026-04-29 20:12 | -21.59361 | -43.55445 | 37322 ft | 423 kts | 314° |
| 2026-04-29 20:12 | -21.57133 | -43.57521 | 37433 ft | 427 kts | 321° |
| 2026-04-29 20:12 | -21.54669 | -43.59315 | 37590 ft | 429 kts | 323° |
| 2026-04-29 20:13 | -21.52165 | -43.61072 | 37753 ft | 430 kts | 323° |
| 2026-04-29 20:13 | -21.50509 | -43.62233 | 37854 ft | 430 kts | 323° |
| 2026-04-29 20:13 | -21.47165 | -43.64573 | 38218 ft | 420 kts | 323° |
| 2026-04-29 20:13 | -21.44705 | -43.66294 | 38216 ft | 424 kts | 323° |
| 2026-04-29 20:14 | -21.39741 | -43.69771 | 38238 ft | 431 kts | 323° |
| 2026-04-29 20:14 | -21.34689 | -43.73305 | 38192 ft | 436 kts | 323° |
| 2026-04-29 20:15 | -21.29598 | -43.76863 | 38181 ft | 437 kts | 323° |
| 2026-04-29 20:15 | -21.24494 | -43.80427 | 38186 ft | 438 kts | 323° |
| 2026-04-29 20:16 | -21.19384 | -43.83992 | 38181 ft | 438 kts | 323° |
| 2026-04-29 20:16 | -21.15141 | -43.86949 | 38159 ft | 437 kts | 323° |
| 2026-04-29 20:17 | -21.10113 | -43.90452 | 38120 ft | 438 kts | 323° |
| 2026-04-29 20:17 | -21.05003 | -43.94008 | 38051 ft | 437 kts | 323° |
| 2026-04-29 20:18 | -20.99893 | -43.97561 | 38048 ft | 438 kts | 323° |
| 2026-04-29 20:18 | -20.94766 | -44.01125 | 38057 ft | 440 kts | 323° |
| 2026-04-29 20:19 | -20.89660 | -44.04669 | 38060 ft | 441 kts | 323° |
| 2026-04-29 20:19 | -20.84510 | -44.08242 | 38052 ft | 441 kts | 323° |
| 2026-04-29 20:20 | -20.79365 | -44.11809 | 38055 ft | 440 kts | 323° |
| 2026-04-29 20:20 | -20.74221 | -44.15371 | 38060 ft | 440 kts | 323° |
| 2026-04-29 20:21 | -20.69076 | -44.18932 | 38047 ft | 441 kts | 323° |
| 2026-04-29 20:21 | -20.63919 | -44.22498 | 38055 ft | 442 kts | 323° |
| 2026-04-29 20:22 | -20.58752 | -44.26068 | 38048 ft | 442 kts | 323° |
| 2026-04-29 20:22 | -20.53587 | -44.29633 | 38051 ft | 442 kts | 323° |
| 2026-04-29 20:23 | -20.48424 | -44.33194 | 38044 ft | 442 kts | 323° |
| 2026-04-29 20:23 | -20.43261 | -44.36752 | 38042 ft | 442 kts | 323° |
| 2026-04-29 20:24 | -20.38123 | -44.40290 | 38043 ft | 442 kts | 323° |
| 2026-04-29 20:24 | -20.32943 | -44.43855 | 38041 ft | 444 kts | 324° |
| 2026-04-29 20:25 | -20.27748 | -44.47427 | 38037 ft | 444 kts | 324° |
| 2026-04-29 20:25 | -20.22557 | -44.50993 | 38037 ft | 444 kts | 324° |
| 2026-04-29 20:26 | -20.17358 | -44.54561 | 38034 ft | 444 kts | 324° |
| 2026-04-29 20:26 | -20.12194 | -44.58104 | 38029 ft | 444 kts | 324° |
| 2026-04-29 20:27 | -20.07846 | -44.61083 | 38031 ft | 444 kts | 324° |
| 2026-04-29 20:27 | -20.01786 | -44.65233 | 38032 ft | 446 kts | 324° |
| 2026-04-29 20:28 | -19.96563 | -44.68807 | 38031 ft | 446 kts | 324° |
| 2026-04-29 20:28 | -19.91340 | -44.72378 | 38023 ft | 446 kts | 324° |
| 2026-04-29 20:29 | -19.86138 | -44.75932 | 38026 ft | 446 kts | 324° |
| 2026-04-29 20:29 | -19.80916 | -44.79496 | 38020 ft | 446 kts | 324° |
| 2026-04-29 20:30 | -19.75695 | -44.83058 | 38011 ft | 445 kts | 324° |
| 2026-04-29 20:30 | -19.70462 | -44.86624 | 38020 ft | 447 kts | 324° |
| 2026-04-29 20:31 | -19.65219 | -44.90193 | 38019 ft | 447 kts | 324° |
| 2026-04-29 20:31 | -19.59980 | -44.93759 | 38009 ft | 447 kts | 324° |
| 2026-04-29 20:32 | -19.54740 | -44.97323 | 38013 ft | 447 kts | 324° |
| 2026-04-29 20:32 | -19.49529 | -45.00863 | 38011 ft | 447 kts | 324° |
| 2026-04-29 20:33 | -19.44273 | -45.04432 | 38011 ft | 449 kts | 324° |
| 2026-04-29 20:33 | -19.39001 | -45.08010 | 38006 ft | 449 kts | 324° |
| 2026-04-29 20:34 | -19.33735 | -45.11579 | 38004 ft | 449 kts | 324° |
| 2026-04-29 20:34 | -19.28503 | -45.15121 | 38004 ft | 449 kts | 324° |
| 2026-04-29 20:35 | -19.23224 | -45.18693 | 38004 ft | 451 kts | 324° |
| 2026-04-29 20:35 | -19.17930 | -45.22273 | 37998 ft | 451 kts | 324° |
| 2026-04-29 20:36 | -19.12642 | -45.25848 | 38002 ft | 450 kts | 324° |
| 2026-04-29 20:36 | -19.07358 | -45.29416 | 37989 ft | 451 kts | 325° |
| 2026-04-29 20:37 | -19.02094 | -45.32967 | 38000 ft | 452 kts | 325° |
| 2026-04-29 20:37 | -18.96791 | -45.36544 | 37998 ft | 452 kts | 325° |
| 2026-04-29 20:38 | -18.91489 | -45.40113 | 37993 ft | 451 kts | 325° |
| 2026-04-29 20:38 | -18.86197 | -45.43675 | 38001 ft | 451 kts | 325° |
| 2026-04-29 20:39 | -18.80886 | -45.47248 | 38000 ft | 453 kts | 325° |
| 2026-04-29 20:39 | -18.75569 | -45.50822 | 37998 ft | 453 kts | 325° |
| 2026-04-29 20:40 | -18.70259 | -45.54386 | 38002 ft | 452 kts | 325° |
| 2026-04-29 20:40 | -18.64983 | -45.57926 | 38002 ft | 452 kts | 325° |
| 2026-04-29 20:41 | -18.59683 | -45.61480 | 38005 ft | 451 kts | 325° |
| 2026-04-29 20:41 | -18.54391 | -45.65027 | 38010 ft | 451 kts | 325° |
| 2026-04-29 20:42 | -18.49094 | -45.68577 | 38009 ft | 451 kts | 325° |
| 2026-04-29 20:42 | -18.43785 | -45.72129 | 38014 ft | 453 kts | 325° |
| 2026-04-29 20:43 | -18.38460 | -45.75689 | 38015 ft | 453 kts | 325° |
| 2026-04-29 20:43 | -18.33139 | -45.79246 | 38015 ft | 452 kts | 325° |
| 2026-04-29 20:44 | -18.27837 | -45.82786 | 38016 ft | 451 kts | 325° |
| 2026-04-29 20:44 | -18.22558 | -45.86310 | 38018 ft | 453 kts | 325° |
| 2026-04-29 20:45 | -18.17233 | -45.89863 | 38017 ft | 453 kts | 325° |
| 2026-04-29 20:45 | -18.11906 | -45.93407 | 38014 ft | 453 kts | 325° |
| 2026-04-29 20:46 | -18.06574 | -45.96956 | 38016 ft | 453 kts | 325° |
| 2026-04-29 20:46 | -18.01239 | -46.00505 | 38011 ft | 455 kts | 325° |
| 2026-04-29 20:47 | -17.95887 | -46.04063 | 38005 ft | 455 kts | 325° |
| 2026-04-29 20:47 | -17.90566 | -46.07599 | 38004 ft | 455 kts | 325° |
| 2026-04-29 20:48 | -17.85227 | -46.11150 | 38004 ft | 454 kts | 325° |
| 2026-04-29 20:48 | -17.79874 | -46.14706 | 37998 ft | 456 kts | 326° |
| 2026-04-29 20:49 | -17.74511 | -46.18264 | 37993 ft | 455 kts | 326° |
| 2026-04-29 20:49 | -17.69158 | -46.21806 | 37988 ft | 454 kts | 326° |
| 2026-04-29 20:50 | -17.63814 | -46.25345 | 37987 ft | 454 kts | 326° |
| 2026-04-29 20:50 | -17.58452 | -46.28889 | 37986 ft | 456 kts | 326° |
| 2026-04-29 20:51 | -17.53111 | -46.32417 | 37980 ft | 456 kts | 326° |
| 2026-04-29 20:51 | -17.47746 | -46.35961 | 37983 ft | 456 kts | 326° |
| 2026-04-29 20:52 | -17.42381 | -46.39504 | 37980 ft | 455 kts | 326° |
| 2026-04-29 20:52 | -17.37009 | -46.43053 | 37978 ft | 457 kts | 326° |
| 2026-04-29 20:53 | -17.31622 | -46.46599 | 37976 ft | 457 kts | 326° |
| 2026-04-29 20:53 | -17.26242 | -46.50146 | 37978 ft | 457 kts | 326° |
| 2026-04-29 20:54 | -17.18166 | -46.55459 | 37980 ft | 458 kts | 326° |
| 2026-04-29 20:55 | -17.12851 | -46.59059 | 38003 ft | 456 kts | 320° |
| 2026-04-29 20:55 | -17.07970 | -46.63300 | 37977 ft | 456 kts | 318° |
| 2026-04-29 20:56 | -17.03135 | -46.67586 | 37987 ft | 455 kts | 318° |
| 2026-04-29 20:56 | -16.98302 | -46.71865 | 37984 ft | 457 kts | 318° |
| 2026-04-29 20:57 | -16.93440 | -46.76166 | 37985 ft | 458 kts | 318° |
| 2026-04-29 20:57 | -16.88573 | -46.80467 | 37987 ft | 458 kts | 318° |
| 2026-04-29 20:58 | -16.83739 | -46.84736 | 37995 ft | 458 kts | 318° |
| 2026-04-29 20:58 | -16.78873 | -46.89031 | 37996 ft | 458 kts | 318° |
| 2026-04-29 20:59 | -16.73991 | -46.93336 | 37998 ft | 460 kts | 318° |
| 2026-04-29 20:59 | -16.69085 | -46.97661 | 37579 ft | 464 kts | 318° |
| 2026-04-29 20:59 | -16.66626 | -46.99825 | 37356 ft | 463 kts | 318° |
| 2026-04-29 21:00 | -16.64151 | -47.02004 | 36610 ft | 467 kts | 318° |
| 2026-04-29 21:00 | -16.61681 | -47.04176 | 36012 ft | 461 kts | 318° |
| 2026-04-29 21:00 | -16.59242 | -47.06322 | 35372 ft | 456 kts | 319° |
| 2026-04-29 21:00 | -16.56828 | -47.08445 | 34768 ft | 451 kts | 319° |
| 2026-04-29 21:01 | -16.54444 | -47.10541 | 34177 ft | 445 kts | 319° |
| 2026-04-29 21:01 | -16.52112 | -47.12592 | 33554 ft | 440 kts | 319° |
| 2026-04-29 21:01 | -16.49795 | -47.14627 | 33021 ft | 432 kts | 319° |
| 2026-04-29 21:01 | -16.47507 | -47.16639 | 32440 ft | 428 kts | 319° |
| 2026-04-29 21:02 | -16.45245 | -47.18626 | 31877 ft | 424 kts | 319° |
| 2026-04-29 21:02 | -16.42979 | -47.20617 | 31328 ft | 435 kts | 320° |
| 2026-04-29 21:02 | -16.40603 | -47.22701 | 30738 ft | 453 kts | 320° |
| 2026-04-29 21:02 | -16.38175 | -47.24831 | 30113 ft | 459 kts | 321° |
| 2026-04-29 21:03 | -16.35689 | -47.26924 | 29489 ft | 461 kts | 322° |
| 2026-04-29 21:03 | -16.33180 | -47.29010 | 28871 ft | 461 kts | 322° |
| 2026-04-29 21:03 | -16.30687 | -47.31086 | 28288 ft | 457 kts | 322° |
| 2026-04-29 21:03 | -16.28211 | -47.33152 | 27664 ft | 453 kts | 322° |
| 2026-04-29 21:04 | -16.25760 | -47.35196 | 27069 ft | 449 kts | 322° |
| 2026-04-29 21:04 | -16.24157 | -47.36535 | 26680 ft | 445 kts | 322° |
| 2026-04-29 21:04 | -16.21750 | -47.38543 | 26093 ft | 441 kts | 322° |
| 2026-04-29 21:04 | -16.18602 | -47.41173 | 25319 ft | 435 kts | 322° |
| 2026-04-29 21:05 | -16.16251 | -47.43134 | 24748 ft | 430 kts | 322° |
| 2026-04-29 21:05 | -16.14683 | -47.44442 | 24368 ft | 427 kts | 322° |
| 2026-04-29 21:05 | -16.11628 | -47.46991 | 23616 ft | 423 kts | 322° |
| 2026-04-29 21:05 | -16.09347 | -47.48894 | 23039 ft | 418 kts | 322° |
| 2026-04-29 21:06 | -16.07087 | -47.50777 | 22497 ft | 415 kts | 323° |
| 2026-04-29 21:06 | -16.05571 | -47.52041 | 22132 ft | 413 kts | 322° |
| 2026-04-29 21:06 | -16.03335 | -47.53905 | 21590 ft | 411 kts | 323° |
| 2026-04-29 21:06 | -16.01105 | -47.55759 | 21046 ft | 409 kts | 323° |
| 2026-04-29 21:07 | -15.98888 | -47.57607 | 20500 ft | 407 kts | 322° |
| 2026-04-29 21:07 | -15.96729 | -47.59481 | 20042 ft | 403 kts | 317° |
| 2026-04-29 21:07 | -15.95124 | -47.61830 | 19435 ft | 407 kts | 295° |
| 2026-04-29 21:07 | -15.94512 | -47.64680 | 19020 ft | 408 kts | 273° |
| 2026-04-29 21:08 | -15.94892 | -47.67616 | 18496 ft | 412 kts | 258° |
| 2026-04-29 21:08 | -15.95448 | -47.70527 | 17938 ft | 407 kts | 262° |
| 2026-04-29 21:08 | -15.95836 | -47.73432 | 17310 ft | 404 kts | 264° |
| 2026-04-29 21:08 | -15.96155 | -47.76317 | 16804 ft | 399 kts | 265° |
| 2026-04-29 21:09 | -15.96423 | -47.79170 | 16329 ft | 394 kts | 266° |
| 2026-04-29 21:09 | -15.96661 | -47.82009 | 15835 ft | 394 kts | 266° |
| 2026-04-29 21:09 | -15.96880 | -47.84820 | 15291 ft | 391 kts | 266° |
| 2026-04-29 21:09 | -15.97084 | -47.87615 | 14806 ft | 385 kts | 267° |
| 2026-04-29 21:10 | -15.97276 | -47.90380 | 14279 ft | 382 kts | 267° |
| 2026-04-29 21:10 | -15.97459 | -47.93122 | 13767 ft | 379 kts | 267° |
| 2026-04-29 21:10 | -15.97638 | -47.95837 | 13278 ft | 374 kts | 267° |
| 2026-04-29 21:10 | -15.97811 | -47.98528 | 12780 ft | 372 kts | 266° |
| 2026-04-29 21:11 | -15.97981 | -48.01167 | 12297 ft | 370 kts | 266° |
| 2026-04-29 21:11 | -15.98151 | -48.03821 | 11791 ft | 366 kts | 266° |
| 2026-04-29 21:11 | -15.98317 | -48.06452 | 11306 ft | 363 kts | 265° |
| 2026-04-29 21:11 | -15.98484 | -48.09056 | 10819 ft | 359 kts | 265° |
| 2026-04-29 21:12 | -15.98648 | -48.11625 | 10340 ft | 355 kts | 265° |
| 2026-04-29 21:12 | -15.98809 | -48.14179 | 9844 ft | 353 kts | 264° |
| 2026-04-29 21:12 | -15.98890 | -48.16712 | 9403 ft | 349 kts | 274° |
| 2026-04-29 21:12 | -15.98168 | -48.19114 | 9037 ft | 352 kts | 300° |
| 2026-04-29 21:13 | -15.96505 | -48.20959 | 8761 ft | 353 kts | 326° |
| 2026-04-29 21:13 | -15.94252 | -48.21881 | 8506 ft | 348 kts | 352° |
| 2026-04-29 21:13 | -15.91947 | -48.21698 | 8214 ft | 318 kts | 19° |
| 2026-04-29 21:13 | -15.90018 | -48.20797 | 7824 ft | 291 kts | 29° |
| 2026-04-29 21:14 | -15.88333 | -48.19816 | 7435 ft | 272 kts | 37° |
| 2026-04-29 21:14 | -15.87153 | -48.18415 | 7223 ft | 245 kts | 67° |
| 2026-04-29 21:14 | -15.86865 | -48.16760 | 7176 ft | 232 kts | 94° |
| 2026-04-29 21:14 | -15.87077 | -48.15091 | 7197 ft | 239 kts | 101° |
| 2026-04-29 21:15 | -15.87292 | -48.13350 | 7127 ft | 248 kts | 92° |
| 2026-04-29 21:15 | -15.87262 | -48.11557 | 7000 ft | 251 kts | 96° |
| 2026-04-29 21:15 | -15.87343 | -48.09721 | 6632 ft | 255 kts | 90° |
| 2026-04-29 21:15 | -15.87245 | -48.07919 | 6220 ft | 244 kts | 86° |
| 2026-04-29 21:16 | -15.87130 | -48.06246 | 6209 ft | 217 kts | 88° |
| 2026-04-29 21:16 | -15.87065 | -48.04689 | 6327 ft | 220 kts | 88° |
| 2026-04-29 21:16 | -15.86987 | -48.03139 | 5947 ft | 210 kts | 87° |
| 2026-04-29 21:16 | -15.86905 | -48.01656 | 5529 ft | 201 kts | 87° |
| 2026-04-29 21:17 | -15.86822 | -48.00269 | 5188 ft | 184 kts | 87° |
| 2026-04-29 21:17 | -15.86751 | -47.99035 | 4909 ft | 160 kts | 87° |
| 2026-04-29 21:17 | -15.86683 | -47.97912 | 4608 ft | 151 kts | 87° |
| 2026-04-29 21:17 | -15.86619 | -47.96863 | 4300 ft | 142 kts | 86° |
| 2026-04-29 21:18 | -15.86549 | -47.95847 | 4091 ft | 144 kts | 86° |
| 2026-04-29 21:18 | -15.86480 | -47.94809 | 3932 ft | 145 kts | 88° |
| 2026-04-29 21:18 | -15.86427 | -47.93769 | 3736 ft | 142 kts | 88° |
| 2026-04-29 21:18 | -15.86353 | -47.92771 | 3516 ft | 135 kts | 88° |
| 2026-04-29 21:19 | -15.86300 | -47.91868 | 3464 ft | 109 kts | 86° |
| 2026-04-29 21:19 | -15.86261 | -47.91270 | 3464 ft | 60 kts | 85° |
| 2026-04-29 21:19 | -15.86241 | -47.90953 | 3475 ft | 26 kts | 86° |
| 2026-04-29 21:19 | -15.86285 | -47.90816 | 3479 ft | 16 kts | 130° |
| 2026-04-29 21:20 | -15.86353 | -47.90739 | 3481 ft | 13 kts | 131° |
| 2026-04-29 21:20 | -15.86429 | -47.90705 | 3479 ft | 13 kts | 177° |
| 2026-04-29 21:20 | -15.86515 | -47.90697 | 3481 ft | 10 kts | 152° |
| 2026-04-29 21:20 | -15.86523 | -47.90630 | 3481 ft | 10 kts | 84° |
| 2026-04-29 21:21 | -15.86518 | -47.90560 | 3484 ft | 10 kts | 86° |
| 2026-04-29 21:21 | -15.86514 | -47.90496 | 3486 ft | 2 kts | 86° |
| 2026-04-29 21:21 | -15.86517 | -47.90471 | 3487 ft | 4 kts | 112° |
| 2026-04-29 21:21 | -15.86553 | -47.90461 | 3484 ft | 8 kts | 177° |
| 2026-04-29 21:22 | -15.86576 | -47.90498 | 3483 ft | 4 kts | 268° |
| 2026-04-29 21:22 | -15.86577 | -47.90501 | 3484 ft | 0 kts | 268° |